PTERI SSPG-SSTB
Flight info
| Callsign | PTERI |
|---|---|
| Flight time | 0h 40m |
| Altitude | 6500 |
| Route | 2550S04902W 2602S04930W |
| Aircraft | BE36/L-BDFGLORY/S |
Departure
| Time | 2026-05-05 03:18 |
|---|---|
| Airport | Paranaguá Airport (SSPG) |
Arrival
| Time | 2026-05-05 03:58 |
|---|---|
| Airport | Três Barras Airport (SSTB) |
| Time | Latitude | Longitude | Altitude | Speed | Heading |
|---|---|---|---|---|---|
| 2026-05-05 03:13 | -25.53801 | -48.53022 | 53 ft | 0 kts | 316° |
| 2026-05-05 03:15 | -25.53801 | -48.53023 | 53 ft | 0 kts | 316° |
| 2026-05-05 03:15 | -25.53801 | -48.53022 | 53 ft | 0 kts | 316° |
| 2026-05-05 03:16 | -25.53795 | -48.53013 | 53 ft | 6 kts | 143° |
| 2026-05-05 03:16 | -25.53867 | -48.52976 | 55 ft | 17 kts | 122° |
| 2026-05-05 03:16 | -25.53797 | -48.52846 | 56 ft | 26 kts | 48° |
| 2026-05-05 03:17 | -25.53671 | -48.52681 | 55 ft | 23 kts | 64° |
| 2026-05-05 03:17 | -25.53662 | -48.52676 | 55 ft | 0 kts | 227° |
| 2026-05-05 03:18 | -25.53846 | -48.52904 | 59 ft | 80 kts | 229° |
| 2026-05-05 03:18 | -25.54332 | -48.53495 | 91 ft | 126 kts | 228° |
| 2026-05-05 03:18 | -25.54876 | -48.54134 | 729 ft | 107 kts | 226° |
| 2026-05-05 03:19 | -25.55871 | -48.55496 | 1450 ft | 119 kts | 240° |
| 2026-05-05 03:19 | -25.56354 | -48.56330 | 1656 ft | 136 kts | 239° |
| 2026-05-05 03:19 | -25.56886 | -48.57247 | 1863 ft | 146 kts | 238° |
| 2026-05-05 03:20 | -25.57445 | -48.58209 | 2078 ft | 150 kts | 238° |
| 2026-05-05 03:20 | -25.58004 | -48.59173 | 2375 ft | 147 kts | 238° |
| 2026-05-05 03:20 | -25.58496 | -48.60156 | 2670 ft | 145 kts | 253° |
| 2026-05-05 03:20 | -25.58774 | -48.61224 | 2972 ft | 144 kts | 256° |
| 2026-05-05 03:21 | -25.59056 | -48.62279 | 3267 ft | 142 kts | 255° |
| 2026-05-05 03:21 | -25.59330 | -48.63318 | 3557 ft | 139 kts | 255° |
| 2026-05-05 03:21 | -25.59604 | -48.64339 | 3843 ft | 137 kts | 255° |
| 2026-05-05 03:21 | -25.59867 | -48.65336 | 4131 ft | 134 kts | 255° |
| 2026-05-05 03:22 | -25.60129 | -48.66311 | 4417 ft | 130 kts | 255° |
| 2026-05-05 03:22 | -25.60383 | -48.67253 | 4715 ft | 126 kts | 253° |
| 2026-05-05 03:22 | -25.60857 | -48.68056 | 4997 ft | 124 kts | 236° |
| 2026-05-05 03:22 | -25.61360 | -48.68840 | 5289 ft | 127 kts | 238° |
| 2026-05-05 03:23 | -25.61868 | -48.69638 | 5578 ft | 125 kts | 239° |
| 2026-05-05 03:23 | -25.62370 | -48.70427 | 5876 ft | 127 kts | 238° |
| 2026-05-05 03:23 | -25.62884 | -48.71227 | 6161 ft | 127 kts | 238° |
| 2026-05-05 03:23 | -25.63389 | -48.72020 | 6463 ft | 125 kts | 239° |
| 2026-05-05 03:24 | -25.63903 | -48.72824 | 6617 ft | 135 kts | 238° |
| 2026-05-05 03:24 | -25.64471 | -48.73717 | 6633 ft | 148 kts | 238° |
| 2026-05-05 03:24 | -25.65076 | -48.74667 | 6638 ft | 152 kts | 238° |
| 2026-05-05 03:24 | -25.65702 | -48.75641 | 6635 ft | 158 kts | 238° |
| 2026-05-05 03:25 | -25.66345 | -48.76654 | 6633 ft | 162 kts | 238° |
| 2026-05-05 03:25 | -25.67001 | -48.77666 | 6640 ft | 161 kts | 238° |
| 2026-05-05 03:25 | -25.67650 | -48.78696 | 6638 ft | 165 kts | 238° |
| 2026-05-05 03:25 | -25.68318 | -48.79741 | 6640 ft | 167 kts | 238° |
| 2026-05-05 03:26 | -25.68989 | -48.80791 | 6636 ft | 167 kts | 237° |
| 2026-05-05 03:26 | -25.69659 | -48.81842 | 6640 ft | 168 kts | 238° |
| 2026-05-05 03:26 | -25.70335 | -48.82902 | 6638 ft | 169 kts | 237° |
| 2026-05-05 03:26 | -25.71014 | -48.83959 | 6641 ft | 167 kts | 236° |
| 2026-05-05 03:27 | -25.71673 | -48.84998 | 6644 ft | 168 kts | 238° |
| 2026-05-05 03:27 | -25.72355 | -48.86074 | 6645 ft | 168 kts | 238° |
| 2026-05-05 03:27 | -25.73032 | -48.87132 | 6644 ft | 168 kts | 237° |
| 2026-05-05 03:27 | -25.73710 | -48.88193 | 6640 ft | 168 kts | 238° |
| 2026-05-05 03:28 | -25.74382 | -48.89250 | 6647 ft | 168 kts | 238° |
| 2026-05-05 03:28 | -25.75046 | -48.90296 | 6650 ft | 169 kts | 237° |
| 2026-05-05 03:28 | -25.75728 | -48.91364 | 6647 ft | 169 kts | 238° |
| 2026-05-05 03:28 | -25.76405 | -48.92428 | 6654 ft | 169 kts | 238° |
| 2026-05-05 03:29 | -25.77082 | -48.93492 | 6657 ft | 169 kts | 238° |
| 2026-05-05 03:29 | -25.77758 | -48.94555 | 6654 ft | 167 kts | 238° |
| 2026-05-05 03:29 | -25.78427 | -48.95606 | 6651 ft | 167 kts | 238° |
| 2026-05-05 03:29 | -25.79099 | -48.96663 | 6657 ft | 168 kts | 238° |
| 2026-05-05 03:30 | -25.79773 | -48.97724 | 6656 ft | 168 kts | 238° |
| 2026-05-05 03:30 | -25.80446 | -48.98783 | 6653 ft | 168 kts | 238° |
| 2026-05-05 03:30 | -25.81117 | -48.99839 | 6656 ft | 167 kts | 237° |
| 2026-05-05 03:30 | -25.81786 | -49.00893 | 6657 ft | 167 kts | 238° |
| 2026-05-05 03:31 | -25.82454 | -49.01952 | 6651 ft | 168 kts | 238° |
| 2026-05-05 03:31 | -25.83130 | -49.03010 | 6660 ft | 168 kts | 237° |
| 2026-05-05 03:31 | -25.83695 | -49.04133 | 6657 ft | 166 kts | 248° |
| 2026-05-05 03:31 | -25.84180 | -49.05294 | 6654 ft | 166 kts | 247° |
| 2026-05-05 03:32 | -25.84681 | -49.06451 | 6656 ft | 166 kts | 246° |
| 2026-05-05 03:32 | -25.85180 | -49.07611 | 6656 ft | 167 kts | 246° |
| 2026-05-05 03:32 | -25.85677 | -49.08769 | 6657 ft | 166 kts | 247° |
| 2026-05-05 03:32 | -25.86175 | -49.09924 | 6658 ft | 166 kts | 247° |
| 2026-05-05 03:33 | -25.86671 | -49.11079 | 6657 ft | 166 kts | 247° |
| 2026-05-05 03:33 | -25.87168 | -49.12236 | 6656 ft | 166 kts | 247° |
| 2026-05-05 03:33 | -25.87666 | -49.13394 | 6657 ft | 167 kts | 246° |
| 2026-05-05 03:33 | -25.88166 | -49.14558 | 6656 ft | 167 kts | 246° |
| 2026-05-05 03:34 | -25.88666 | -49.15721 | 6656 ft | 167 kts | 247° |
| 2026-05-05 03:34 | -25.88997 | -49.16493 | 6649 ft | 167 kts | 247° |
| 2026-05-05 03:34 | -25.89498 | -49.17657 | 6659 ft | 167 kts | 247° |
| 2026-05-05 03:34 | -25.89998 | -49.18822 | 6656 ft | 167 kts | 247° |
| 2026-05-05 03:35 | -25.90662 | -49.20368 | 6661 ft | 167 kts | 247° |
| 2026-05-05 03:35 | -25.91000 | -49.21156 | 6659 ft | 167 kts | 247° |
| 2026-05-05 03:35 | -25.91663 | -49.22700 | 6653 ft | 167 kts | 247° |
| 2026-05-05 03:35 | -25.92000 | -49.23489 | 6657 ft | 167 kts | 247° |
| 2026-05-05 03:36 | -25.92501 | -49.24655 | 6660 ft | 168 kts | 247° |
| 2026-05-05 03:36 | -25.93002 | -49.25823 | 6660 ft | 168 kts | 247° |
| 2026-05-05 03:36 | -25.93665 | -49.27371 | 6660 ft | 168 kts | 247° |
| 2026-05-05 03:36 | -25.94004 | -49.28162 | 6662 ft | 168 kts | 247° |
| 2026-05-05 03:37 | -25.94507 | -49.29334 | 6662 ft | 168 kts | 247° |
| 2026-05-05 03:37 | -25.95009 | -49.30507 | 6662 ft | 168 kts | 247° |
| 2026-05-05 03:37 | -25.95512 | -49.31681 | 6659 ft | 168 kts | 247° |
| 2026-05-05 03:37 | -25.96013 | -49.32855 | 6658 ft | 168 kts | 247° |
| 2026-05-05 03:38 | -25.96517 | -49.34031 | 6661 ft | 169 kts | 247° |
| 2026-05-05 03:38 | -25.97020 | -49.35206 | 6661 ft | 168 kts | 247° |
| 2026-05-05 03:38 | -25.97515 | -49.36364 | 6662 ft | 169 kts | 247° |
| 2026-05-05 03:38 | -25.98019 | -49.37544 | 6665 ft | 169 kts | 248° |
| 2026-05-05 03:39 | -25.98522 | -49.38724 | 6666 ft | 169 kts | 248° |
| 2026-05-05 03:39 | -25.99028 | -49.39901 | 6668 ft | 169 kts | 247° |
| 2026-05-05 03:39 | -25.99534 | -49.41083 | 6668 ft | 169 kts | 247° |
| 2026-05-05 03:39 | -26.00038 | -49.42268 | 6666 ft | 169 kts | 247° |
| 2026-05-05 03:40 | -26.00544 | -49.43449 | 6664 ft | 169 kts | 247° |
| 2026-05-05 03:40 | -26.01050 | -49.44633 | 6662 ft | 170 kts | 247° |
| 2026-05-05 03:40 | -26.01552 | -49.45816 | 6666 ft | 169 kts | 247° |
| 2026-05-05 03:40 | -26.02056 | -49.46992 | 6665 ft | 169 kts | 247° |
| 2026-05-05 03:41 | -26.02558 | -49.48175 | 6665 ft | 169 kts | 247° |
| 2026-05-05 03:41 | -26.03065 | -49.49362 | 6661 ft | 170 kts | 247° |
| 2026-05-05 03:41 | -26.03425 | -49.50601 | 6664 ft | 169 kts | 264° |
| 2026-05-05 03:41 | -26.03569 | -49.51895 | 6668 ft | 168 kts | 263° |
| 2026-05-05 03:42 | -26.03735 | -49.53187 | 6663 ft | 170 kts | 263° |
| 2026-05-05 03:42 | -26.03898 | -49.54484 | 6667 ft | 170 kts | 263° |
| 2026-05-05 03:42 | -26.04063 | -49.55787 | 6662 ft | 169 kts | 264° |
| 2026-05-05 03:42 | -26.04226 | -49.57081 | 6661 ft | 169 kts | 263° |
| 2026-05-05 03:43 | -26.04387 | -49.58368 | 6662 ft | 168 kts | 263° |
| 2026-05-05 03:43 | -26.04549 | -49.59660 | 6662 ft | 169 kts | 263° |
| 2026-05-05 03:43 | -26.04708 | -49.60948 | 6662 ft | 168 kts | 263° |
| 2026-05-05 03:43 | -26.04868 | -49.62231 | 6655 ft | 167 kts | 264° |
| 2026-05-05 03:44 | -26.05028 | -49.63510 | 6658 ft | 167 kts | 263° |
| 2026-05-05 03:44 | -26.05186 | -49.64789 | 6657 ft | 166 kts | 264° |
| 2026-05-05 03:44 | -26.05344 | -49.66069 | 6660 ft | 167 kts | 263° |
| 2026-05-05 03:44 | -26.05512 | -49.67355 | 6662 ft | 169 kts | 263° |
| 2026-05-05 03:45 | -26.05671 | -49.68646 | 6660 ft | 169 kts | 264° |
| 2026-05-05 03:45 | -26.05829 | -49.69944 | 6660 ft | 170 kts | 264° |
| 2026-05-05 03:45 | -26.05992 | -49.71242 | 6659 ft | 170 kts | 264° |
| 2026-05-05 03:45 | -26.06149 | -49.72535 | 6666 ft | 169 kts | 263° |
| 2026-05-05 03:46 | -26.06315 | -49.73834 | 6665 ft | 170 kts | 264° |
| 2026-05-05 03:46 | -26.06476 | -49.75137 | 6667 ft | 170 kts | 264° |
| 2026-05-05 03:46 | -26.06637 | -49.76435 | 6662 ft | 169 kts | 264° |
| 2026-05-05 03:46 | -26.06796 | -49.77724 | 6658 ft | 168 kts | 264° |
| 2026-05-05 03:47 | -26.06952 | -49.79004 | 6660 ft | 167 kts | 264° |
| 2026-05-05 03:47 | -26.07112 | -49.80288 | 6657 ft | 167 kts | 264° |
| 2026-05-05 03:47 | -26.07268 | -49.81576 | 6663 ft | 169 kts | 263° |
| 2026-05-05 03:47 | -26.07435 | -49.82880 | 6655 ft | 171 kts | 264° |
| 2026-05-05 03:48 | -26.07595 | -49.84192 | 6660 ft | 171 kts | 264° |
| 2026-05-05 03:48 | -26.07755 | -49.85505 | 6662 ft | 172 kts | 264° |
| 2026-05-05 03:48 | -26.07917 | -49.86819 | 6658 ft | 171 kts | 264° |
| 2026-05-05 03:48 | -26.08074 | -49.88103 | 6658 ft | 169 kts | 264° |
| 2026-05-05 03:49 | -26.08234 | -49.89403 | 6655 ft | 169 kts | 264° |
| 2026-05-05 03:49 | -26.08397 | -49.90700 | 6653 ft | 169 kts | 264° |
| 2026-05-05 03:49 | -26.08557 | -49.91998 | 6656 ft | 169 kts | 264° |
| 2026-05-05 03:49 | -26.08714 | -49.93289 | 6651 ft | 168 kts | 264° |
| 2026-05-05 03:50 | -26.08870 | -49.94581 | 6654 ft | 169 kts | 265° |
| 2026-05-05 03:50 | -26.09029 | -49.95881 | 6656 ft | 170 kts | 264° |
| 2026-05-05 03:50 | -26.09188 | -49.97183 | 6652 ft | 170 kts | 264° |
| 2026-05-05 03:50 | -26.09349 | -49.98484 | 6653 ft | 170 kts | 264° |
| 2026-05-05 03:51 | -26.09509 | -49.99788 | 6656 ft | 170 kts | 264° |
| 2026-05-05 03:51 | -26.09666 | -50.01082 | 6653 ft | 168 kts | 264° |
| 2026-05-05 03:51 | -26.09822 | -50.02382 | 6655 ft | 171 kts | 264° |
| 2026-05-05 03:51 | -26.09987 | -50.03692 | 6652 ft | 170 kts | 264° |
| 2026-05-05 03:52 | -26.10145 | -50.04993 | 6652 ft | 170 kts | 264° |
| 2026-05-05 03:52 | -26.10302 | -50.06288 | 6655 ft | 169 kts | 264° |
| 2026-05-05 03:52 | -26.10460 | -50.07578 | 6652 ft | 168 kts | 265° |
| 2026-05-05 03:52 | -26.10610 | -50.08860 | 6652 ft | 167 kts | 264° |
| 2026-05-05 03:53 | -26.10768 | -50.10141 | 6648 ft | 168 kts | 264° |
| 2026-05-05 03:53 | -26.10926 | -50.11433 | 6655 ft | 169 kts | 264° |
| 2026-05-05 03:53 | -26.11081 | -50.12729 | 6652 ft | 168 kts | 264° |
| 2026-05-05 03:53 | -26.11240 | -50.14021 | 6656 ft | 168 kts | 264° |
| 2026-05-05 03:54 | -26.11400 | -50.15308 | 6656 ft | 168 kts | 265° |
| 2026-05-05 03:54 | -26.11553 | -50.16594 | 6655 ft | 168 kts | 265° |
| 2026-05-05 03:54 | -26.11708 | -50.17877 | 6654 ft | 167 kts | 264° |
| 2026-05-05 03:54 | -26.11863 | -50.19159 | 6651 ft | 167 kts | 264° |
| 2026-05-05 03:55 | -26.12016 | -50.20442 | 6651 ft | 167 kts | 264° |
| 2026-05-05 03:55 | -26.12170 | -50.21723 | 6651 ft | 168 kts | 264° |
| 2026-05-05 03:55 | -26.12326 | -50.23021 | 6661 ft | 170 kts | 265° |
| 2026-05-05 03:55 | -26.12486 | -50.24328 | 6653 ft | 171 kts | 264° |
| 2026-05-05 03:56 | -26.12643 | -50.25635 | 6660 ft | 171 kts | 265° |
| 2026-05-05 03:56 | -26.12799 | -50.26950 | 6657 ft | 171 kts | 264° |
| 2026-05-05 03:56 | -26.13269 | -50.28191 | 6023 ft | 204 kts | 226° |
| 2026-05-05 03:56 | -26.14388 | -50.29084 | 5377 ft | 193 kts | 217° |
| 2026-05-05 03:57 | -26.15441 | -50.29874 | 4842 ft | 179 kts | 217° |
| 2026-05-05 03:57 | -26.16416 | -50.30642 | 4429 ft | 161 kts | 219° |
| 2026-05-05 03:57 | -26.16688 | -50.31567 | 4224 ft | 131 kts | 310° |
| 2026-05-05 03:57 | -26.15788 | -50.31887 | 3402 ft | 143 kts | 2° |
| 2026-05-05 03:58 | -26.14991 | -50.31660 | 2916 ft | 101 kts | 20° |
| 2026-05-05 03:58 | -26.14397 | -50.31417 | 2657 ft | 82 kts | 21° |
| 2026-05-05 03:58 | -26.13922 | -50.31223 | 2570 ft | 55 kts | 20° |
| 2026-05-05 03:58 | -26.13733 | -50.31145 | 2566 ft | 24 kts | 19° |
| 2026-05-05 03:59 | -26.13628 | -50.31106 | 2562 ft | 20 kts | 23° |
| 2026-05-05 03:59 | -26.13452 | -50.31033 | 2560 ft | 31 kts | 20° |
| 2026-05-05 03:59 | -26.13238 | -50.30945 | 2555 ft | 29 kts | 20° |
| 2026-05-05 03:59 | -26.13128 | -50.30919 | 2553 ft | 11 kts | 297° |
| 2026-05-05 04:00 | -26.13109 | -50.30973 | 2552 ft | 0 kts | 289° |